Time;durP1;ratioP1;P1;durP2;ratioP2;P2;SDS_P1;SDS_P2;PMS_P1;PMS_P2;Temp;Humidity;BMP_temperature;BMP_pressure;BME280_temperature;BME280_humidity;BME280_pressure;Samples;Min_cycle;Max_cycle;Signal;HPM_P1;HPM_P2
2022/12/29 00:01:52;;;;;;;0.50;0.50;;;5.50;99.90;;;;;;5027941;28;20207;-50
2022/12/29 00:04:19;;;;;;;0.63;0.63;;;5.60;99.90;;;;;;5020670;28;20229;-50
2022/12/29 00:06:48;;;;;;;0.80;0.70;;;5.70;99.90;;;;;;5025506;28;20688;-51
2022/12/29 00:09:17;;;;;;;0.67;0.67;;;5.70;99.90;;;;;;5032451;28;20204;-51
2022/12/29 00:11:44;;;;;;;0.70;0.50;;;5.60;99.90;;;;;;5032423;28;20205;-50
2022/12/29 00:17:00;;;;;;;0.40;0.40;;;5.70;99.90;;;;;;5024677;28;20220;-49
2022/12/29 00:36:19;;;;;;;1.07;0.40;;;5.80;99.90;;;;;;5021067;28;20201;-51
2022/12/29 00:44:20;;;;;;;0.40;0.30;;;5.80;99.90;;;;;;5023414;28;20229;-50
2022/12/29 00:46:47;;;;;;;0.50;0.50;;;5.80;99.90;;;;;;5025813;28;20208;-50
2022/12/29 00:49:32;;;;;;;0.40;0.40;;;5.90;99.90;;;;;;5032141;28;20208;-50
2022/12/29 00:52:01;;;;;;;0.57;0.50;;;5.90;99.90;;;;;;5051530;22;20814;-50
2022/12/29 00:54:31;;;;;;;2.30;0.60;;;5.80;99.90;;;;;;5029682;28;20224;-50
2022/12/29 00:56:59;;;;;;;0.50;0.50;;;5.80;99.90;;;;;;5028466;28;20217;-50
2022/12/29 00:59:27;;;;;;;0.50;0.50;;;5.80;99.90;;;;;;5027183;28;20206;-50
2022/12/29 01:02:01;;;;;;;0.40;0.40;;;5.70;99.90;;;;;;5030140;28;20254;-50
2022/12/29 01:04:28;;;;;;;0.90;0.50;;;5.70;99.90;;;;;;5023507;28;20219;-50
2022/12/29 01:06:58;;;;;;;0.47;0.40;;;5.70;99.90;;;;;;5031897;28;20621;-50
2022/12/29 01:12:12;;;;;;;0.40;0.40;;;5.60;99.90;;;;;;5024738;28;20224;-50
2022/12/29 01:14:40;;;;;;;1.03;0.77;;;5.50;99.90;;;;;;5026693;28;20205;-50
2022/12/29 01:17:07;;;;;;;1.63;0.53;;;5.50;99.90;;;;;;5030897;28;20197;-50
2022/12/29 01:19:34;;;;;;;0.53;0.53;;;5.50;99.90;;;;;;5025497;28;20203;-50
2022/12/29 01:22:01;;;;;;;0.30;0.30;;;5.40;99.90;;;;;;5024367;28;20731;-50
2022/12/29 01:24:28;;;;;;;1.70;0.40;;;5.30;99.90;;;;;;5032463;28;20235;-50
2022/12/29 01:26:58;;;;;;;0.77;0.30;;;5.30;99.90;;;;;;5029730;28;20603;-50
2022/12/29 01:29:27;;;;;;;0.70;0.60;;;5.20;99.90;;;;;;5023445;28;20205;-49
2022/12/29 01:31:54;;;;;;;0.30;0.30;;;5.30;99.90;;;;;;5030875;28;20225;-50
2022/12/29 01:34:21;;;;;;;0.30;0.30;;;5.40;99.90;;;;;;5029781;28;20206;-50
2022/12/29 01:36:48;;;;;;;0.37;0.30;;;5.30;99.90;;;;;;5027293;28;20208;-49
2022/12/29 01:39:15;;;;;;;0.57;0.57;;;5.30;99.90;;;;;;5028245;28;20228;-49
2022/12/29 01:41:42;;;;;;;0.77;0.77;;;5.30;99.90;;;;;;5028898;28;20539;-51
2022/12/29 01:44:46;;;;;;;0.30;0.30;;;5.20;99.90;;;;;;5023895;28;20231;-50
2022/12/29 01:47:15;;;;;;;0.47;0.47;;;5.10;99.90;;;;;;5018395;28;20206;-50
2022/12/29 01:49:42;;;;;;;0.60;0.40;;;5.00;99.90;;;;;;5025642;28;20679;-50
2022/12/29 01:52:09;;;;;;;0.73;0.40;;;4.90;99.90;;;;;;5003815;28;20243;-50
2022/12/29 01:54:40;;;;;;;1.17;0.30;;;4.90;99.90;;;;;;5014312;28;20194;-50
2022/12/29 01:57:12;;;;;;;0.40;0.40;;;4.80;99.90;;;;;;5006007;28;20299;-49
2022/12/29 01:59:42;;;;;;;0.30;0.30;;;4.80;99.90;;;;;;5029894;28;20228;-49
2022/12/29 02:02:09;;;;;;;0.50;0.37;;;4.70;99.90;;;;;;5021133;28;20660;-50
2022/12/29 02:04:44;;;;;;;1.17;0.30;;;4.80;99.90;;;;;;5014379;28;20352;-49
2022/12/29 02:07:17;;;;;;;2.40;0.40;;;4.80;99.90;;;;;;5006135;28;20194;-50
2022/12/29 02:09:47;;;;;;;0.43;0.40;;;4.80;99.90;;;;;;5030306;28;20202;-50
2022/12/29 02:12:15;;;;;;;0.90;0.40;;;4.90;99.90;;;;;;5032300;28;20279;-50
2022/12/29 02:14:42;;;;;;;0.67;0.63;;;4.90;99.90;;;;;;5003975;28;20213;-50
2022/12/29 02:17:17;;;;;;;0.60;0.40;;;4.90;99.90;;;;;;5018937;28;20694;-51
2022/12/29 02:20:27;;;;;;;0.40;0.40;;;4.90;99.90;;;;;;5020499;28;20206;-50
2022/12/29 02:23:14;;;;;;;0.40;0.40;;;4.90;99.90;;;;;;5032002;28;20292;-50
2022/12/29 02:26:04;;;;;;;0.20;0.20;;;5.10;99.90;;;;;;5013154;28;20636;-50
2022/12/29 02:29:01;;;;;;;2.00;0.33;;;5.20;99.90;;;;;;5007750;28;20254;-50
2022/12/29 02:31:36;;;;;;;0.27;0.27;;;5.40;99.90;;;;;;5011816;28;20229;-50
2022/12/29 02:34:17;;;;;;;0.33;0.30;;;5.50;99.90;;;;;;5004663;28;20192;-50
2022/12/29 02:36:52;;;;;;;1.20;0.37;;;5.60;99.90;;;;;;5013194;28;20219;-50
2022/12/29 02:39:26;;;;;;;0.50;0.40;;;5.60;99.90;;;;;;5023515;28;20205;-50
2022/12/29 02:42:01;;;;;;;0.40;0.40;;;5.70;99.90;;;;;;5012752;28;20641;-50
2022/12/29 02:44:37;;;;;;;0.40;0.40;;;5.80;99.90;;;;;;5027874;28;20219;-50
2022/12/29 02:47:12;;;;;;;2.20;0.70;;;5.80;99.90;;;;;;5022115;28;20195;-49
2022/12/29 02:49:47;;;;;;;0.87;0.50;;;5.80;99.90;;;;;;5023519;28;20266;-50
2022/12/29 02:52:19;;;;;;;1.43;0.70;;;5.90;99.90;;;;;;5029993;28;20656;-50
2022/12/29 02:54:44;;;;;;;0.20;0.20;;;5.90;99.90;;;;;;5031750;28;20663;-50
2022/12/29 02:57:15;;;;;;;0.50;0.50;;;6.00;99.90;;;;;;5025002;28;20268;-50
2022/12/29 02:59:43;;;;;;;0.87;0.40;;;6.10;99.90;;;;;;5018528;28;20205;-50
2022/12/29 03:02:29;;;;;;;0.37;0.37;;;6.30;99.90;;;;;;5025236;28;20229;-50
2022/12/29 03:05:16;;;;;;;0.30;0.30;;;6.30;99.90;;;;;;5033326;28;20224;-50
2022/12/29 03:07:51;;;;;;;0.30;0.30;;;6.30;99.90;;;;;;5030929;28;20641;-50
2022/12/29 03:10:31;;;;;;;0.30;0.30;;;6.20;99.90;;;;;;5035229;28;20306;-48
2022/12/29 03:16:03;;;;;;;0.50;0.43;;;6.10;99.90;;;;;;5035557;28;20686;-50
2022/12/29 03:18:40;;;;;;;1.53;0.50;;;6.00;99.90;;;;;;5030761;28;20256;-49
2022/12/29 03:21:12;;;;;;;1.90;0.53;;;5.90;99.90;;;;;;5028184;28;20228;-49
2022/12/29 03:23:41;;;;;;;0.87;0.60;;;5.90;99.90;;;;;;5029273;28;20779;-50
2022/12/29 03:26:12;;;;;;;0.37;0.37;;;5.90;99.90;;;;;;5028623;28;20225;-50
2022/12/29 03:28:42;;;;;;;0.30;0.30;;;6.00;99.90;;;;;;5035054;28;20682;-50
2022/12/29 03:31:11;;;;;;;0.20;0.20;;;6.00;99.90;;;;;;5035004;28;20736;-50
2022/12/29 03:33:42;;;;;;;0.20;0.20;;;6.10;99.90;;;;;;5028382;28;20208;-50
2022/12/29 03:36:14;;;;;;;1.70;0.43;;;6.30;99.90;;;;;;5030197;28;20204;-50
2022/12/29 03:38:48;;;;;;;1.57;0.40;;;6.40;99.90;;;;;;5033047;28;20261;-50
2022/12/29 03:41:19;;;;;;;0.43;0.43;;;6.60;99.90;;;;;;5034647;28;20849;-50
2022/12/29 03:43:47;;;;;;;0.40;0.40;;;6.70;99.90;;;;;;5035146;28;20265;-50
2022/12/29 03:46:14;;;;;;;0.40;0.40;;;6.90;99.90;;;;;;5030230;28;20315;-49
2022/12/29 03:48:42;;;;;;;0.20;0.20;;;7.00;99.90;;;;;;5027884;28;20202;-49
2022/12/29 03:51:09;;;;;;;1.53;0.40;;;7.00;99.90;;;;;;5029051;28;20219;-50
2022/12/29 03:53:36;;;;;;;3.83;0.33;;;7.00;99.90;;;;;;5014811;28;20211;-49
2022/12/29 03:56:03;;;;;;;0.37;0.37;;;7.00;99.90;;;;;;5014819;28;20208;-49
2022/12/29 03:58:30;;;;;;;0.40;0.37;;;7.00;99.90;;;;;;5013116;28;20229;-50
2022/12/29 04:00:58;;;;;;;1.00;0.40;;;7.10;99.90;;;;;;5020531;28;20220;-50
2022/12/29 04:03:25;;;;;;;0.97;0.70;;;7.10;99.90;;;;;;5030051;28;20629;-50
2022/12/29 04:05:53;;;;;;;0.67;0.40;;;7.20;99.90;;;;;;5023420;28;20221;-50
2022/12/29 04:08:20;;;;;;;0.80;0.30;;;7.30;99.90;;;;;;5023167;28;20255;-49
2022/12/29 04:10:49;;;;;;;0.33;0.30;;;7.40;99.90;;;;;;5028118;28;20274;-50
2022/12/29 04:13:16;;;;;;;1.43;0.40;;;7.40;99.90;;;;;;5022476;28;20201;-50
2022/12/29 04:15:45;;;;;;;0.60;0.40;;;7.50;99.90;;;;;;5014224;28;20198;-49
2022/12/29 04:18:12;;;;;;;0.83;0.80;;;7.60;99.90;;;;;;5014501;28;20209;-50
2022/12/29 04:23:24;;;;;;;0.40;0.40;;;7.60;99.90;;;;;;5005389;28;20227;-49
2022/12/29 04:25:51;;;;;;;0.40;0.40;;;7.50;99.90;;;;;;5029552;28;20227;-49
2022/12/29 04:28:18;;;;;;;0.70;0.40;;;7.50;99.90;;;;;;5014358;28;20624;-49
2022/12/29 04:30:46;;;;;;;0.33;0.33;;;7.50;99.90;;;;;;5013878;28;20770;-50
2022/12/29 04:33:13;;;;;;;0.53;0.53;;;7.60;99.90;;;;;;5014262;28;20206;-50
2022/12/29 04:35:40;;;;;;;0.67;0.40;;;7.70;99.90;;;;;;5012673;28;20757;-49
2022/12/29 04:38:07;;;;;;;0.40;0.40;;;7.70;99.90;;;;;;5004863;28;20673;-50
2022/12/29 04:40:35;;;;;;;0.73;0.73;;;7.70;99.90;;;;;;5020235;28;20854;-50
2022/12/29 04:43:02;;;;;;;0.50;0.50;;;7.70;99.90;;;;;;5014041;28;20192;-50
2022/12/29 04:45:29;;;;;;;0.70;0.43;;;7.70;99.90;;;;;;5033604;28;20220;-50
2022/12/29 04:47:56;;;;;;;0.73;0.40;;;7.70;99.90;;;;;;5016316;28;20671;-50
2022/12/29 04:50:23;;;;;;;0.40;0.40;;;7.70;99.90;;;;;;5012141;28;20715;-50
2022/12/29 04:52:50;;;;;;;0.60;0.40;;;7.70;99.90;;;;;;5028620;28;20209;-50
2022/12/29 04:55:17;;;;;;;0.37;0.37;;;7.80;99.90;;;;;;5033481;28;20200;-50
2022/12/29 04:57:46;;;;;;;3.90;0.87;;;7.70;99.90;;;;;;5033536;28;20208;-50
2022/12/29 05:00:14;;;;;;;0.93;0.40;;;7.70;99.90;;;;;;5027208;28;20698;-49
2022/12/29 05:02:41;;;;;;;0.57;0.57;;;7.60;99.90;;;;;;5027009;28;20216;-49
2022/12/29 05:05:08;;;;;;;0.40;0.40;;;7.60;99.90;;;;;;5023831;28;20266;-50
2022/12/29 05:07:36;;;;;;;1.57;0.40;;;7.60;99.90;;;;;;5027028;28;20233;-50
2022/12/29 05:10:03;;;;;;;0.20;0.20;;;7.50;99.90;;;;;;5032801;28;20573;-49
2022/12/29 05:12:31;;;;;;;0.40;0.40;;;7.40;99.90;;;;;;5033352;28;20213;-50
2022/12/29 05:15:00;;;;;;;1.13;0.47;;;7.30;99.90;;;;;;5033299;28;20300;-50
2022/12/29 05:17:27;;;;;;;0.47;0.47;;;7.20;99.90;;;;;;5033204;28;20295;-50
2022/12/29 05:19:54;;;;;;;0.30;0.30;;;7.20;99.90;;;;;;5028916;28;20200;-52
2022/12/29 05:22:21;;;;;;;1.50;0.80;;;7.10;99.90;;;;;;5014612;28;20710;-50
2022/12/29 05:24:48;;;;;;;0.60;0.30;;;7.00;99.90;;;;;;5023517;28;20200;-50
2022/12/29 05:27:15;;;;;;;0.87;0.60;;;7.00;99.90;;;;;;5032104;28;20206;-49
2022/12/29 05:29:42;;;;;;;0.77;0.73;;;7.00;99.90;;;;;;5032780;28;20239;-50
2022/12/29 05:32:11;;;;;;;1.30;0.30;;;7.00;99.90;;;;;;5032724;28;20371;-51
2022/12/29 05:34:38;;;;;;;0.47;0.47;;;7.00;99.90;;;;;;5022299;28;20249;-50
2022/12/29 05:37:05;;;;;;;0.20;0.20;;;7.10;99.90;;;;;;5025542;28;20249;-50
2022/12/29 05:39:32;;;;;;;0.77;0.50;;;7.20;99.90;;;;;;5025153;28;20253;-51
2022/12/29 05:42:00;;;;;;;1.53;0.63;;;7.20;99.90;;;;;;5025665;28;20236;-51
2022/12/29 05:44:27;;;;;;;0.50;0.40;;;7.20;99.90;;;;;;5028589;28;20254;-50
2022/12/29 05:46:57;;;;;;;0.33;0.33;;;7.30;99.90;;;;;;5030848;28;20298;-51
2022/12/29 05:49:26;;;;;;;0.33;0.33;;;7.20;99.90;;;;;;5023467;28;20212;-51
2022/12/29 05:51:56;;;;;;;0.60;0.60;;;7.20;99.90;;;;;;5024496;28;20232;-51
2022/12/29 05:54:23;;;;;;;0.80;0.80;;;7.10;99.90;;;;;;5010196;28;20283;-51
2022/12/29 05:56:50;;;;;;;2.00;1.30;;;7.10;99.90;;;;;;5013014;28;20264;-51
2022/12/29 05:59:17;;;;;;;1.13;0.70;;;7.00;99.90;;;;;;5032195;28;20205;-50
2022/12/29 06:01:44;;;;;;;1.33;0.77;;;6.90;99.90;;;;;;5031913;28;20283;-49
2022/12/29 06:04:11;;;;;;;2.93;0.90;;;6.80;99.90;;;;;;5012616;28;20755;-52
2022/12/29 06:06:40;;;;;;;0.63;0.63;;;6.80;99.90;;;;;;5018813;28;20275;-50
2022/12/29 06:09:07;;;;;;;1.40;1.13;;;6.80;99.90;;;;;;5032051;28;20685;-51
2022/12/29 06:11:34;;;;;;;0.67;0.67;;;6.80;99.90;;;;;;5023000;28;20645;-51
2022/12/29 06:14:01;;;;;;;0.43;0.43;;;6.90;99.90;;;;;;5017763;28;20214;-51
2022/12/29 06:16:28;;;;;;;0.30;0.30;;;6.90;99.90;;;;;;5024070;28;20204;-51
2022/12/29 06:18:55;;;;;;;1.13;0.50;;;6.90;99.90;;;;;;5023611;28;20200;-51
2022/12/29 06:21:22;;;;;;;0.50;0.50;;;6.90;99.90;;;;;;5031735;28;20305;-50
2022/12/29 06:23:50;;;;;;;0.50;0.23;;;7.00;99.90;;;;;;5031902;28;20204;-50
2022/12/29 06:26:17;;;;;;;1.80;0.63;;;7.10;99.90;;;;;;5027799;28;20220;-51
2022/12/29 06:28:44;;;;;;;0.97;0.50;;;7.10;99.90;;;;;;5019907;28;20278;-50
2022/12/29 06:31:12;;;;;;;0.60;0.60;;;7.10;99.90;;;;;;5006654;28;20645;-51
2022/12/29 06:33:39;;;;;;;0.50;0.50;;;7.00;99.90;;;;;;5011526;28;20262;-51
2022/12/29 06:36:06;;;;;;;0.40;0.40;;;6.80;99.90;;;;;;5013564;28;20263;-50
2022/12/29 06:38:35;;;;;;;0.73;0.73;;;6.80;99.90;;;;;;5024348;28;20684;-50
2022/12/29 06:41:03;;;;;;;0.40;0.30;;;6.90;99.90;;;;;;5031380;28;20223;-51
2022/12/29 06:43:32;;;;;;;0.53;0.30;;;7.10;99.90;;;;;;4999834;28;20727;-51
2022/12/29 06:45:59;;;;;;;1.80;1.70;;;7.10;99.90;;;;;;5007478;28;20256;-52
2022/12/29 06:48:26;;;;;;;0.47;0.47;;;7.20;99.90;;;;;;4992395;28;20272;-51
2022/12/29 06:50:53;;;;;;;0.83;0.83;;;7.20;99.90;;;;;;5031564;23;22106;-53
2022/12/29 06:53:20;;;;;;;0.50;0.40;;;7.20;99.90;;;;;;5024832;28;20234;-51
2022/12/29 06:55:47;;;;;;;0.63;0.50;;;7.20;99.90;;;;;;5029634;28;20192;-53
2022/12/29 06:58:15;;;;;;;0.40;0.40;;;7.20;99.90;;;;;;5029597;28;20295;-52
2022/12/29 07:00:43;;;;;;;1.30;0.50;;;7.10;99.90;;;;;;5026350;28;20227;-53
2022/12/29 07:03:10;;;;;;;3.03;2.73;;;7.10;99.90;;;;;;5025822;28;20241;-53
2022/12/29 07:05:37;;;;;;;1.40;1.30;;;7.20;99.90;;;;;;5010008;28;20229;-52
2022/12/29 07:08:04;;;;;;;2.30;0.80;;;7.20;99.90;;;;;;5022610;28;20196;-53
2022/12/29 07:10:31;;;;;;;0.53;0.53;;;7.30;99.90;;;;;;5029010;28;20200;-53
2022/12/29 07:12:58;;;;;;;2.30;0.73;;;7.50;99.90;;;;;;5009941;28;20212;-52
2022/12/29 07:15:27;;;;;;;0.40;0.40;;;7.70;99.90;;;;;;5020354;28;20291;-53
2022/12/29 07:17:54;;;;;;;0.80;0.70;;;7.90;99.90;;;;;;5029437;28;20200;-52
2022/12/29 07:20:21;;;;;;;0.50;0.30;;;8.00;99.90;;;;;;5024447;28;20267;-53
2022/12/29 07:22:48;;;;;;;0.43;0.43;;;8.00;99.90;;;;;;5021099;28;20250;-53
2022/12/29 07:25:15;;;;;;;0.67;0.60;;;8.20;99.90;;;;;;5026582;28;20283;-52
2022/12/29 07:27:42;;;;;;;0.40;0.40;;;8.30;99.90;;;;;;5023580;28;20643;-52
2022/12/29 07:30:10;;;;;;;1.53;0.90;;;8.30;99.90;;;;;;5022364;28;20567;-53
2022/12/29 07:32:38;;;;;;;0.50;0.50;;;8.20;99.90;;;;;;5027844;28;20707;-52
2022/12/29 07:35:06;;;;;;;0.83;0.77;;;8.40;99.90;;;;;;5027753;28;20200;-52
2022/12/29 07:37:34;;;;;;;0.73;0.60;;;8.40;99.90;;;;;;5020338;28;20208;-53
2022/12/29 07:40:03;;;;;;;0.30;0.30;;;8.40;99.90;;;;;;5029404;28;20632;-52
2022/12/29 07:42:30;;;;;;;1.23;0.40;;;8.50;99.90;;;;;;5029354;28;20235;-53
2022/12/29 07:44:57;;;;;;;0.50;0.50;;;8.50;99.90;;;;;;5026983;28;20229;-53
2022/12/29 07:47:24;;;;;;;1.63;1.10;;;8.50;99.90;;;;;;5018933;28;20280;-53
2022/12/29 07:49:53;;;;;;;0.63;0.60;;;8.60;99.90;;;;;;5027031;28;20293;-52
2022/12/29 07:52:19;;;;;;;1.17;0.70;;;8.80;99.90;;;;;;5022107;28;20310;-52
2022/12/29 07:54:46;;;;;;;1.37;0.40;;;8.90;99.90;;;;;;5022797;28;20569;-53
2022/12/29 07:57:13;;;;;;;2.37;1.77;;;9.00;99.90;;;;;;5019465;28;20299;-52
2022/12/29 07:59:40;;;;;;;1.47;1.37;;;9.10;99.90;;;;;;5019238;28;20265;-52
2022/12/29 08:02:11;;;;;;;2.53;2.20;;;9.10;99.90;;;;;;5018134;28;20223;-52
2022/12/29 08:04:38;;;;;;;0.93;0.93;;;9.10;99.90;;;;;;5002184;28;20285;-52
2022/12/29 08:07:06;;;;;;;1.70;1.23;;;9.10;99.90;;;;;;5017271;28;20625;-53
2022/12/29 08:09:33;;;;;;;4.37;2.17;;;9.00;99.90;;;;;;5032525;28;20682;-53
2022/12/29 08:12:00;;;;;;;2.23;2.03;;;9.10;99.90;;;;;;5015603;28;20229;-53
2022/12/29 08:14:27;;;;;;;2.80;0.50;;;9.10;99.90;;;;;;5016442;28;20268;-53
2022/12/29 08:16:54;;;;;;;1.60;0.40;;;9.10;99.90;;;;;;5011907;28;20209;-53
2022/12/29 08:19:21;;;;;;;4.03;0.80;;;9.30;99.90;;;;;;5000577;28;20206;-53
2022/12/29 08:21:48;;;;;;;0.77;0.57;;;9.40;99.90;;;;;;5005747;28;20222;-53
2022/12/29 08:24:16;;;;;;;0.63;0.63;;;9.40;99.90;;;;;;5010236;28;20260;-53
2022/12/29 08:26:43;;;;;;;2.13;1.13;;;9.40;99.90;;;;;;5020599;28;20438;-53
2022/12/29 08:29:10;;;;;;;0.60;0.60;;;9.50;99.90;;;;;;5018784;28;20209;-52
2022/12/29 08:31:37;;;;;;;1.60;0.90;;;9.50;99.90;;;;;;5021756;28;20365;-53
2022/12/29 08:34:05;;;;;;;5.60;2.93;;;9.40;99.90;;;;;;5013040;28;20205;-53
2022/12/29 08:36:32;;;;;;;1.07;0.60;;;9.40;99.90;;;;;;5008424;28;20608;-53
2022/12/29 08:38:59;;;;;;;2.97;1.10;;;9.50;99.90;;;;;;4996539;28;20276;-52
2022/12/29 08:41:27;;;;;;;0.93;0.50;;;9.50;99.90;;;;;;5004160;28;20230;-53
2022/12/29 08:43:54;;;;;;;0.97;0.63;;;9.50;99.90;;;;;;5007643;28;20276;-53
2022/12/29 08:46:22;;;;;;;1.80;0.83;;;9.60;99.90;;;;;;5011093;28;20591;-53
2022/12/29 08:48:49;;;;;;;1.70;1.60;;;9.60;99.90;;;;;;5002937;28;20264;-52
2022/12/29 08:51:16;;;;;;;1.43;0.90;;;9.60;99.90;;;;;;5006454;28;20696;-53
2022/12/29 08:53:43;;;;;;;1.77;0.70;;;9.60;99.90;;;;;;5011574;28;20201;-53
2022/12/29 08:56:11;;;;;;;0.80;0.40;;;9.60;99.90;;;;;;5000533;28;20916;-53
2022/12/29 08:58:40;;;;;;;1.23;1.00;;;9.50;99.90;;;;;;5000855;28;20308;-53
2022/12/29 09:01:08;;;;;;;0.53;0.53;;;9.50;99.90;;;;;;5006433;28;20308;-53
2022/12/29 09:03:35;;;;;;;0.50;0.50;;;9.40;99.90;;;;;;5008692;28;20639;-52
2022/12/29 09:06:02;;;;;;;1.73;0.53;;;9.30;99.90;;;;;;5009029;28;20640;-53
2022/12/29 09:08:29;;;;;;;1.07;0.60;;;9.40;99.90;;;;;;5023117;28;20212;-52
2022/12/29 09:10:56;;;;;;;0.67;0.67;;;9.40;99.90;;;;;;5020249;28;20726;-52
2022/12/29 09:13:23;;;;;;;0.60;0.60;;;9.40;99.90;;;;;;5028689;28;20223;-52
2022/12/29 09:15:59;;;;;;;0.87;0.70;;;9.50;99.90;;;;;;5012468;28;20207;-53
2022/12/29 09:18:25;;;;;;;0.40;0.40;;;9.50;99.90;;;;;;5010406;28;20290;-53
2022/12/29 09:20:58;;;;;;;2.20;0.43;;;9.60;99.90;;;;;;4993781;28;20615;-52
2022/12/29 09:23:25;;;;;;;0.63;0.63;;;9.70;99.90;;;;;;4991914;28;20221;-51
2022/12/29 09:25:52;;;;;;;2.00;0.77;;;9.80;99.90;;;;;;5001130;28;20603;-53
2022/12/29 09:28:20;;;;;;;0.63;0.60;;;9.80;99.90;;;;;;5005450;28;20252;-53
2022/12/29 09:30:47;;;;;;;1.60;0.60;;;9.90;99.90;;;;;;5008555;28;20228;-53
2022/12/29 09:33:16;;;;;;;1.57;0.50;;;10.00;99.90;;;;;;5016772;28;20271;-53
2022/12/29 09:35:44;;;;;;;0.63;0.60;;;10.00;99.90;;;;;;5016467;28;20657;-52
2022/12/29 09:38:11;;;;;;;0.77;0.70;;;10.10;99.90;;;;;;5021895;28;20572;-53
2022/12/29 09:40:40;;;;;;;0.90;0.90;;;10.20;99.90;;;;;;5002875;28;20210;-53
2022/12/29 09:43:23;;;;;;;2.90;1.17;;;10.20;99.90;;;;;;5007569;28;20229;-53
2022/12/29 09:46:00;;;;;;;0.60;0.60;;;10.20;99.90;;;;;;5011500;28;20207;-53
2022/12/29 09:48:33;;;;;;;2.47;0.83;;;10.20;99.90;;;;;;5008370;28;20582;-52
2022/12/29 09:51:09;;;;;;;0.80;0.80;;;10.30;99.90;;;;;;5011247;28;20306;-51
2022/12/29 09:53:42;;;;;;;1.25;0.50;;;10.30;99.90;;;;;;5020214;28;20529;-52
2022/12/29 09:56:16;;;;;;;0.90;0.90;;;10.40;99.90;;;;;;5013190;28;20202;-53
2022/12/29 09:58:48;;;;;;;1.70;0.87;;;10.40;99.90;;;;;;5021015;28;20211;-54
2022/12/29 10:01:23;;;;;;;1.10;0.97;;;10.50;99.90;;;;;;5023078;28;20311;-53
2022/12/29 10:03:53;;;;;;;0.50;0.50;;;10.60;99.90;;;;;;5026783;28;20296;-52
2022/12/29 10:06:25;;;;;;;0.63;0.60;;;10.70;99.90;;;;;;5023580;28;20267;-53
2022/12/29 10:09:02;;;;;;;0.60;0.60;;;10.80;99.90;;;;;;5026215;28;20210;-52
2022/12/29 10:11:44;;;;;;;0.67;0.30;;;10.80;99.90;;;;;;5026730;28;20229;-53
2022/12/29 10:14:30;;;;;;;0.50;0.40;;;10.90;99.90;;;;;;5014205;28;20206;-53
2022/12/29 10:17:09;;;;;;;1.30;0.70;;;11.00;99.90;;;;;;5010737;28;20290;-53
2022/12/29 10:19:52;;;;;;;0.60;0.60;;;11.10;99.90;;;;;;5026475;28;20567;-53
2022/12/29 10:22:32;;;;;;;0.40;0.40;;;11.40;99.90;;;;;;5027345;28;20236;-53
2022/12/29 10:25:03;;;;;;;0.53;0.50;;;11.70;99.90;;;;;;5021941;28;20208;-53
2022/12/29 10:27:32;;;;;;;1.33;0.67;;;12.00;99.90;;;;;;5027300;28;20286;-53
2022/12/29 10:30:02;;;;;;;1.53;0.50;;;12.10;99.90;;;;;;5026970;28;20209;-53
2022/12/29 10:32:34;;;;;;;1.20;1.10;;;12.20;99.90;;;;;;5026088;28;20233;-51
2022/12/29 10:35:08;;;;;;;5.27;2.27;;;12.30;99.90;;;;;;5028313;28;20204;-53
2022/12/29 10:37:41;;;;;;;1.10;0.40;;;12.30;99.90;;;;;;5025592;28;20282;-53
2022/12/29 10:40:20;;;;;;;0.40;0.40;;;12.50;99.90;;;;;;5029506;28;20669;-53
2022/12/29 10:42:51;;;;;;;0.40;0.40;;;12.60;99.90;;;;;;5027804;28;20309;-53
2022/12/29 10:45:20;;;;;;;0.30;0.30;;;12.70;99.90;;;;;;5022268;28;20289;-54
2022/12/29 10:47:56;;;;;;;1.33;0.67;;;12.80;99.90;;;;;;5024884;28;20276;-54
2022/12/29 10:50:25;;;;;;;0.93;0.93;;;12.80;99.90;;;;;;5028996;28;20206;-54
2022/12/29 10:52:53;;;;;;;1.03;0.50;;;12.80;99.90;;;;;;5029867;28;20235;-53
2022/12/29 10:55:27;;;;;;;2.60;2.40;;;12.90;99.90;;;;;;5029310;28;20204;-55
2022/12/29 10:57:57;;;;;;;0.50;0.50;;;13.00;99.90;;;;;;5005249;28;20198;-54
2022/12/29 11:00:24;;;;;;;1.57;0.40;;;13.20;99.90;;;;;;5016906;28;20277;-54
2022/12/29 11:03:21;;;;;;;0.93;0.40;;;13.30;99.80;;;;;;5029707;28;20229;-54
2022/12/29 11:05:54;;;;;;;0.90;0.50;;;13.20;99.10;;;;;;5024528;28;20199;-54
2022/12/29 11:08:25;;;;;;;1.00;0.40;;;13.30;99.90;;;;;;5013303;28;20242;-53
2022/12/29 11:11:00;;;;;;;0.40;0.30;;;13.20;99.30;;;;;;5003655;28;20567;-53
2022/12/29 11:13:29;;;;;;;1.23;1.13;;;13.20;99.50;;;;;;5016601;28;20297;-53
2022/12/29 11:15:56;;;;;;;0.47;0.47;;;13.20;99.10;;;;;;5013862;28;20213;-53
2022/12/29 11:18:25;;;;;;;0.40;0.40;;;13.20;98.70;;;;;;5013637;28;20205;-53
2022/12/29 11:20:55;;;;;;;1.47;0.30;;;13.30;98.90;;;;;;5029022;28;20219;-54
2022/12/29 11:23:27;;;;;;;0.60;0.50;;;13.50;98.60;;;;;;5029842;28;20586;-53
2022/12/29 11:26:16;;;;;;;0.67;0.40;;;13.50;98.50;;;;;;5025123;28;20221;-53
2022/12/29 11:28:46;;;;;;;0.57;0.50;;;13.60;97.60;;;;;;5016371;28;20231;-53
2022/12/29 11:31:17;;;;;;;0.97;0.47;;;13.50;97.10;;;;;;5017289;28;20231;-53
2022/12/29 11:33:44;;;;;;;0.30;0.30;;;13.50;97.80;;;;;;5031803;28;20641;-54
2022/12/29 11:36:17;;;;;;;0.37;0.37;;;13.50;96.50;;;;;;5025789;28;20268;-53
2022/12/29 11:38:48;;;;;;;0.97;0.30;;;13.50;96.60;;;;;;5006724;28;20205;-53
2022/12/29 11:41:24;;;;;;;0.30;0.30;;;13.40;96.80;;;;;;5005620;28;20231;-54
2022/12/29 11:43:53;;;;;;;0.40;0.40;;;13.30;96.40;;;;;;5012947;28;20221;-53
2022/12/29 11:46:24;;;;;;;0.30;0.30;;;13.30;98.20;;;;;;5011921;28;20211;-53
2022/12/29 11:48:51;;;;;;;0.40;0.40;;;13.10;96.10;;;;;;5015456;28;20267;-53
2022/12/29 11:51:29;;;;;;;0.53;0.50;;;13.10;96.80;;;;;;5032942;28;20282;-53
2022/12/29 11:53:59;;;;;;;0.30;0.30;;;13.10;96.70;;;;;;5026766;28;20278;-53
2022/12/29 11:56:36;;;;;;;0.60;0.60;;;13.10;95.90;;;;;;5012578;28;20266;-53
2022/12/29 11:59:41;;;;;;;0.47;0.47;;;13.10;96.80;;;;;;4998293;28;20216;-54
2022/12/29 12:02:43;;;;;;;1.23;0.47;;;13.10;97.00;;;;;;5020029;28;20222;-53
2022/12/29 12:05:40;;;;;;;0.40;0.40;;;13.10;96.40;;;;;;5012277;28;20279;-53
2022/12/29 12:08:18;;;;;;;1.23;0.40;;;13.00;96.20;;;;;;4981140;28;20283;-51
2022/12/29 12:10:51;;;;;;;0.63;0.40;;;13.10;95.60;;;;;;5011418;28;20257;-53
2022/12/29 12:13:24;;;;;;;0.23;0.23;;;13.10;97.10;;;;;;5018090;28;20201;-53
2022/12/29 12:15:58;;;;;;;1.07;0.50;;;13.00;97.60;;;;;;5024387;28;20277;-53
2022/12/29 12:18:35;;;;;;;0.50;0.30;;;13.10;96.30;;;;;;5000569;28;20260;-53
2022/12/29 12:21:11;;;;;;;0.60;0.33;;;13.00;97.50;;;;;;4998356;28;20263;-53
2022/12/29 12:23:53;;;;;;;1.13;0.40;;;13.00;96.90;;;;;;5006506;28;20580;-53
2022/12/29 12:26:25;;;;;;;2.33;0.50;;;12.90;97.10;;;;;;5015242;28;20627;-53
2022/12/29 12:28:56;;;;;;;0.70;0.40;;;13.00;97.00;;;;;;5002304;28;20237;-53
2022/12/29 12:31:34;;;;;;;0.20;0.20;;;13.00;96.80;;;;;;5008433;28;20276;-53
2022/12/29 12:34:06;;;;;;;1.43;0.40;;;12.90;96.50;;;;;;5008966;28;20201;-52
2022/12/29 12:36:58;;;;;;;0.40;0.40;;;12.90;97.00;;;;;;5005473;28;20211;-54
2022/12/29 12:39:35;;;;;;;2.87;0.50;;;13.00;96.80;;;;;;5006818;28;20266;-53
2022/12/29 12:42:14;;;;;;;1.00;0.50;;;13.00;97.50;;;;;;5006767;28;20288;-53
2022/12/29 12:44:50;;;;;;;1.03;0.30;;;12.90;96.60;;;;;;5002612;28;20203;-53
2022/12/29 12:47:45;;;;;;;0.30;0.30;;;12.90;97.50;;;;;;5001660;28;20225;-53
2022/12/29 12:50:43;;;;;;;0.30;0.30;;;12.90;98.00;;;;;;5012499;28;20268;-54
2022/12/29 12:53:28;;;;;;;0.50;0.50;;;12.80;98.40;;;;;;5040909;23;20233;-51
2022/12/29 12:56:13;;;;;;;0.70;0.40;;;12.70;98.70;;;;;;5025516;28;20213;-50
2022/12/29 12:58:48;;;;;;;0.40;0.40;;;12.70;97.90;;;;;;5032809;28;20697;-51
2022/12/29 13:01:34;;;;;;;0.40;0.40;;;12.70;98.60;;;;;;5029242;28;20254;-52
2022/12/29 13:04:20;;;;;;;0.60;0.50;;;12.70;98.80;;;;;;5001947;28;20527;-52
2022/12/29 13:07:07;;;;;;;2.70;0.50;;;12.80;99.40;;;;;;4988035;28;20253;-51
2022/12/29 13:09:54;;;;;;;1.37;0.60;;;12.70;99.60;;;;;;5006980;28;20281;-50
2022/12/29 13:12:37;;;;;;;0.30;0.30;;;12.70;99.10;;;;;;5011610;28;20215;-49
2022/12/29 13:15:19;;;;;;;0.50;0.50;;;12.70;99.40;;;;;;5011985;28;20195;-50
2022/12/29 13:18:12;;;;;;;1.40;0.40;;;12.70;99.30;;;;;;5009624;28;20247;-50
2022/12/29 13:20:46;;;;;;;1.53;0.50;;;12.70;98.90;;;;;;5012115;28;20750;-50
2022/12/29 13:23:25;;;;;;;16.90;2.77;;;12.70;97.60;;;;;;5011960;28;20284;-50
2022/12/29 13:25:59;;;;;;;4.00;0.97;;;12.70;98.80;;;;;;5012997;28;20673;-51
2022/12/29 13:28:33;;;;;;;2.80;0.80;;;12.80;99.00;;;;;;5013175;28;20297;-50
2022/12/29 13:31:06;;;;;;;1.70;1.43;;;12.70;99.00;;;;;;5012372;28;20252;-50
2022/12/29 13:33:43;;;;;;;0.47;0.47;;;12.60;98.10;;;;;;5012140;28;20226;-50
2022/12/29 13:36:19;;;;;;;0.70;0.70;;;12.60;99.20;;;;;;5012073;28;20201;-51
2022/12/29 13:38:49;;;;;;;1.97;0.60;;;12.50;98.30;;;;;;5012664;28;20256;-51
2022/12/29 13:41:31;;;;;;;0.40;0.30;;;12.50;98.70;;;;;;5011427;28;20203;-51
2022/12/29 13:44:03;;;;;;;0.83;0.60;;;12.40;98.40;;;;;;5003447;28;20210;-51
2022/12/29 13:46:38;;;;;;;0.67;0.60;;;12.40;98.90;;;;;;5012744;28;20251;-51
2022/12/29 13:49:09;;;;;;;1.70;0.67;;;12.30;99.20;;;;;;5010755;28;20256;-51